Time;durP1;ratioP1;P1;durP2;ratioP2;P2;SDS_P1;SDS_P2;PMS_P1;PMS_P2;Temp;Humidity;BMP_temperature;BMP_pressure;BME280_temperature;BME280_humidity;BME280_pressure;Samples;Min_cycle;Max_cycle;Signal;HPM_P1;HPM_P2
2021/12/17 00:01:05;;;;;;;20.25;12.85;;;;;;;6.67;78.54;102995.38;5092345;28;20031;-55
2021/12/17 00:03:37;;;;;;;17.50;12.65;;;;;;;6.65;78.36;102998.78;5090456;28;20024;-55
2021/12/17 00:06:41;;;;;;;18.70;12.80;;;;;;;6.65;79.02;103007.53;5091694;28;20391;-53
2021/12/17 00:08:54;;;;;;;20.25;13.30;;;;;;;6.65;78.74;103014.50;5089611;28;20085;-55
2021/12/17 00:11:32;;;;;;;19.80;13.50;;;;;;;6.66;78.90;103008.41;5089573;28;20543;-54
2021/12/17 00:13:57;;;;;;;20.23;13.43;;;;;;;6.65;78.64;103020.66;5091572;28;20118;-55
2021/12/17 00:16:27;;;;;;;23.67;13.50;;;;;;;6.65;78.38;103015.41;5093695;28;20119;-54
2021/12/17 00:19:09;;;;;;;20.27;13.25;;;;;;;6.66;78.75;103011.03;5090476;28;20031;-55
2021/12/17 00:48:59;;;;;;;16.58;11.20;;;;;;;6.58;78.30;102968.75;5076267;28;20054;-55
2021/12/17 00:51:55;;;;;;;20.63;13.30;;;;;;;6.56;78.37;102969.53;5087704;28;20468;-55
2021/12/17 00:54:31;;;;;;;;;;;;;;;6.57;78.36;102973.94;5090130;28;20032;-55
2021/12/17 00:56:58;;;;;;;19.88;12.15;;;;;;;6.53;78.21;102955.44;5089800;28;20363;-55
2021/12/17 00:59:24;;;;;;;19.80;12.75;;;;;;;6.55;78.16;102966.00;5091368;28;20501;-54
2021/12/17 01:01:51;;;;;;;19.88;12.43;;;;;;;6.56;77.97;102964.28;5090591;28;20024;-55
2021/12/17 01:04:16;;;;;;;18.77;12.93;;;;;;;6.54;78.35;102965.09;5091459;28;20056;-54
2021/12/17 01:06:42;;;;;;;17.30;11.73;;;;;;;6.57;78.21;102963.44;5091020;28;20055;-51
2021/12/17 01:09:08;;;;;;;18.00;12.23;;;;;;;6.54;77.80;102970.34;5090757;28;20824;-55
2021/12/17 01:11:34;;;;;;;20.55;12.38;;;;;;;6.56;78.21;102966.91;5090240;28;20036;-54
2021/12/17 01:14:00;;;;;;;19.10;12.25;;;;;;;6.53;78.04;102963.31;5090517;28;20073;-55
2021/12/17 01:16:27;;;;;;;17.77;11.93;;;;;;;6.53;78.11;102968.53;5091386;28;20028;-55
2021/12/17 01:35:27;;;;;;;16.75;11.93;;;;;;;6.50;77.72;103004.22;5086208;28;20711;-55
2021/12/17 01:39:18;;;;;;;18.85;11.35;;;;;;;6.50;77.50;103005.13;5089972;28;20043;-54
2021/12/17 01:43:43;;;;;;;15.93;10.75;;;;;;;6.46;78.00;102997.03;5087638;28;20487;-54
2021/12/17 01:46:09;;;;;;;21.42;13.73;;;;;;;6.45;77.58;103001.41;5090352;28;20032;-55
2021/12/17 01:59:17;;;;;;;16.77;11.25;;;;;;;6.43;77.98;103010.03;5089863;28;20081;-54
2021/12/17 01:59:42;;;;;;;17.85;11.07;;;;;;;6.44;78.20;102989.13;5087117;28;20114;-55
2021/12/17 02:02:09;;;;;;;15.18;11.30;;;;;;;6.44;77.56;103001.31;5089906;28;20377;-52
2021/12/17 02:04:35;;;;;;;20.52;12.45;;;;;;;6.41;77.32;102995.09;5087883;28;20055;-52
2021/12/17 02:07:02;;;;;;;17.17;11.10;;;;;;;6.41;77.64;103002.97;5085612;28;20038;-54
2021/12/17 02:10:14;;;;;;;14.15;10.45;;;;;;;6.43;77.75;103003.03;5091118;28;20072;-54
2021/12/17 02:13:04;;;;;;;16.27;10.73;;;;;;;6.43;77.49;103003.03;5089793;28;20039;-55
2021/12/17 02:28:44;;;;;;;15.95;9.88;;;;;;;6.40;77.80;103008.13;5091686;28;20035;-55
2021/12/17 02:29:40;;;;;;;16.73;10.73;;;;;;;6.38;77.36;103012.41;5087236;28;20377;-55
2021/12/17 02:32:07;;;;;;;15.48;11.07;;;;;;;6.37;77.19;103008.00;5088175;28;20043;-55
2021/12/17 02:35:05;;;;;;;15.30;11.68;;;;;;;6.36;77.75;103012.34;5071232;28;20043;-55
2021/12/17 02:37:34;;;;;;;14.48;10.20;;;;;;;6.37;76.99;103013.25;5090972;28;20037;-55
2021/12/17 02:47:58;;;;;;;14.77;10.30;;;;;;;6.33;76.88;103021.81;5088663;28;20031;-54
2021/12/17 02:50:46;;;;;;;16.58;11.90;;;;;;;6.33;77.38;103011.31;5085520;28;20020;-54
2021/12/17 02:53:20;;;;;;;17.08;10.38;;;;;;;6.31;77.41;103012.97;5087466;28;20047;-54
2021/12/17 02:55:51;;;;;;;19.63;10.65;;;;;;;6.34;77.36;103018.34;5085689;28;20028;-55
2021/12/17 02:58:16;;;;;;;18.13;10.98;;;;;;;6.33;77.22;103021.81;5091270;28;20032;-55
2021/12/17 03:00:42;;;;;;;16.13;10.85;;;;;;;6.33;77.11;103013.94;5070518;28;20384;-55
2021/12/17 03:03:09;;;;;;;16.65;10.50;;;;;;;6.33;77.20;103013.94;5091324;28;20034;-55
2021/12/17 03:05:36;;;;;;;15.23;11.30;;;;;;;6.32;77.30;103012.13;5093705;28;20119;-52
2021/12/17 03:08:02;;;;;;;16.15;10.30;;;;;;;6.31;77.08;103007.72;5093450;28;20052;-55
2021/12/17 03:10:27;;;;;;;16.23;11.65;;;;;;;6.31;77.01;102997.22;5093746;28;20463;-54
2021/12/17 03:13:01;;;;;;;15.63;10.65;;;;;;;6.28;77.03;103004.13;5092869;28;20495;-55
2021/12/17 03:26:06;;;;;;;15.18;9.93;;;;;;;6.24;76.98;103002.19;5091739;28;20177;-53
2021/12/17 03:28:33;;;;;;;17.48;11.20;;;;;;;6.23;77.23;102989.91;5092450;28;20032;-55
2021/12/17 03:30:59;;;;;;;16.15;9.90;;;;;;;6.21;77.05;102988.06;5074321;28;20032;-55
2021/12/17 03:33:24;;;;;;;16.63;10.43;;;;;;;6.23;77.44;102995.16;5091823;28;20103;-54
2021/12/17 03:35:50;;;;;;;16.73;10.15;;;;;;;6.23;76.67;103008.25;5090538;28;20153;-54
2021/12/17 03:38:16;;;;;;;18.77;11.38;;;;;;;6.23;76.84;103015.22;5074922;28;20020;-54
2021/12/17 03:40:46;;;;;;;16.08;10.82;;;;;;;6.20;76.98;103021.22;5074670;28;20136;-55
2021/12/17 03:43:13;;;;;;;15.45;10.32;;;;;;;6.21;76.82;103012.56;5090813;28;20116;-55
2021/12/17 03:45:40;;;;;;;16.92;10.60;;;;;;;6.23;76.69;103012.59;5090093;28;20020;-54
2021/12/17 03:48:08;;;;;;;16.48;10.98;;;;;;;6.20;76.96;103002.88;5072504;28;20040;-55
2021/12/17 03:50:36;;;;;;;15.57;10.50;;;;;;;6.21;77.33;102999.44;5092353;28;20035;-55
2021/12/17 03:53:03;;;;;;;14.10;9.95;;;;;;;6.21;76.71;103004.69;5071246;28;20447;-55
2021/12/17 03:55:29;;;;;;;13.85;9.80;;;;;;;6.19;76.66;102998.47;5092332;28;21034;-54
2021/12/17 03:57:54;;;;;;;15.02;9.93;;;;;;;6.19;76.85;102992.31;5090384;28;20043;-54
2021/12/17 04:00:19;;;;;;;15.45;10.40;;;;;;;6.20;76.90;102995.00;5083204;28;20028;-55
2021/12/17 04:02:46;;;;;;;14.77;10.50;;;;;;;6.15;77.39;102986.94;5073094;28;20036;-55
2021/12/17 04:05:11;;;;;;;19.20;10.98;;;;;;;6.18;76.97;102987.91;5091042;28;20067;-54
2021/12/17 04:07:37;;;;;;;12.65;9.43;;;;;;;6.21;76.57;102990.69;5092287;28;20154;-55
2021/12/17 04:10:03;;;;;;;16.23;10.65;;;;;;;6.15;76.90;102986.94;5092991;28;20016;-54
2021/12/17 04:13:01;;;;;;;17.58;11.30;;;;;;;6.17;76.79;102984.38;5092131;28;20044;-53
2021/12/17 04:15:36;;;;;;;15.88;10.73;;;;;;;6.14;76.41;102989.50;5091649;28;20024;-55
2021/12/17 04:18:51;;;;;;;13.77;9.27;;;;;;;6.15;76.82;102975.56;5088951;28;20024;-55
2021/12/17 04:21:17;;;;;;;14.30;10.07;;;;;;;6.16;77.32;102974.72;5089785;28;20028;-54
2021/12/17 04:23:43;;;;;;;14.48;10.40;;;;;;;6.12;77.13;102973.69;5092143;28;20605;-53
2021/12/17 04:26:09;;;;;;;15.02;10.93;;;;;;;6.13;77.05;102974.56;5091851;28;20072;-53
2021/12/17 04:28:45;;;;;;;17.27;11.05;;;;;;;6.12;76.58;102972.78;5089073;28;20028;-53
2021/12/17 04:31:11;;;;;;;15.23;10.07;;;;;;;6.11;76.83;102963.16;5088778;28;20024;-53
2021/12/17 04:33:38;;;;;;;16.90;10.25;;;;;;;6.13;76.58;102977.19;5074028;28;20027;-53
2021/12/17 04:36:04;;;;;;;15.85;9.90;;;;;;;6.13;76.74;102972.88;5092108;28;20024;-54
2021/12/17 04:38:30;;;;;;;14.32;9.70;;;;;;;6.12;77.00;102973.69;5090205;28;20561;-53
2021/12/17 04:41:02;;;;;;;13.68;9.07;;;;;;;6.11;76.36;102968.38;5089600;28;20028;-54
2021/12/17 04:43:43;;;;;;;12.75;8.98;;;;;;;6.09;76.47;102970.94;5092026;28;20027;-53
2021/12/17 04:46:50;;;;;;;14.52;9.52;;;;;;;6.08;76.38;102978.72;5087088;28;20040;-53
2021/12/17 04:57:31;;;;;;;14.85;9.40;;;;;;;6.05;76.04;102989.06;5089989;28;20072;-53
2021/12/17 05:00:00;;;;;;;;;;;;;;;6.03;76.13;102995.13;5074336;28;20024;-53
2021/12/17 05:02:28;;;;;;;14.07;9.85;;;;;;;6.01;76.46;102983.63;5089870;28;20376;-53
2021/12/17 05:04:54;;;;;;;13.10;8.88;;;;;;;6.02;77.10;102984.53;5090459;28;20031;-53
2021/12/17 05:07:22;;;;;;;15.43;9.38;;;;;;;6.02;76.49;102972.34;5091193;28;20031;-53
2021/12/17 05:09:57;;;;;;;14.93;9.50;;;;;;;6.01;76.50;102967.91;5090374;28;20028;-53
2021/12/17 05:20:46;;;;;;;14.18;9.30;;;;;;;6.02;76.53;102982.81;5090263;28;20395;-53
2021/12/17 05:23:12;;;;;;;13.80;10.07;;;;;;;6.02;76.23;102990.69;5091000;28;20024;-53
2021/12/17 05:25:37;;;;;;;13.10;8.88;;;;;;;6.00;76.19;102981.84;5089254;28;20396;-53
2021/12/17 05:28:03;;;;;;;15.10;9.32;;;;;;;6.01;76.56;102990.59;5090214;28;20016;-53
2021/12/17 05:30:29;;;;;;;14.77;9.38;;;;;;;6.00;76.07;102996.69;5090230;28;20024;-53
2021/12/17 05:32:55;;;;;;;15.02;10.13;;;;;;;5.98;76.47;102996.59;5087328;28;20020;-53
2021/12/17 05:35:21;;;;;;;13.23;10.20;;;;;;;6.00;76.60;102994.06;5090773;28;20035;-53
2021/12/17 05:37:46;;;;;;;13.90;9.30;;;;;;;5.99;76.30;102998.38;5090347;28;20016;-53
2021/12/17 05:40:11;;;;;;;14.25;9.32;;;;;;;5.99;76.47;102998.38;5091820;28;20533;-52
2021/12/17 05:42:37;;;;;;;14.25;9.65;;;;;;;5.99;76.29;103001.00;5088133;28;20028;-53
2021/12/17 05:45:09;;;;;;;13.88;9.35;;;;;;;6.01;76.45;103016.81;5090459;28;20020;-53
2021/12/17 05:47:34;;;;;;;13.18;9.18;;;;;;;5.97;76.03;103013.13;5088067;28;20502;-53
2021/12/17 05:50:00;;;;;;;15.90;9.18;;;;;;;5.98;76.17;103011.41;5090071;28;20048;-53
2021/12/17 05:52:25;;;;;;;15.23;9.63;;;;;;;5.99;76.15;103006.25;5090284;28;20028;-53
2021/12/17 05:54:50;;;;;;;12.13;8.60;;;;;;;5.99;76.25;103006.25;5089611;28;20428;-53
2021/12/17 05:57:16;;;;;;;12.95;8.65;;;;;;;5.99;76.14;103011.50;5088698;28;20105;-53
2021/12/17 05:59:41;;;;;;;14.07;10.18;;;;;;;5.97;76.15;103002.66;5085711;28;20062;-53
2021/12/17 06:02:11;;;;;;;11.93;8.60;;;;;;;5.94;75.76;103004.25;5088468;28;20020;-53
2021/12/17 06:04:36;;;;;;;14.57;9.45;;;;;;;5.96;76.20;103020.91;5089601;28;20030;-53
2021/12/17 06:07:02;;;;;;;12.70;8.70;;;;;;;5.94;76.13;103023.47;5089060;28;20020;-53
2021/12/17 06:09:27;;;;;;;13.88;9.15;;;;;;;5.95;76.26;103030.50;5088330;28;20032;-53
2021/12/17 06:11:53;;;;;;;13.63;9.38;;;;;;;5.94;76.66;103020.88;5087210;28;20027;-53
2021/12/17 06:14:18;;;;;;;14.63;9.80;;;;;;;5.92;75.67;103019.88;5089569;28;20550;-53
2021/12/17 06:16:43;;;;;;;15.85;9.98;;;;;;;5.93;76.74;103021.66;5089793;28;20028;-53
2021/12/17 06:19:09;;;;;;;16.15;10.75;;;;;;;5.91;75.77;103012.84;5089181;28;20102;-54
2021/12/17 06:21:34;;;;;;;15.30;9.27;;;;;;;5.91;76.19;103018.97;5085711;28;20495;-53
2021/12/17 06:23:59;;;;;;;16.15;9.82;;;;;;;5.93;76.58;103021.66;5088979;28;20047;-53
2021/12/17 06:26:25;;;;;;;13.15;10.10;;;;;;;5.91;76.08;103018.09;5085309;28;20027;-53
2021/12/17 06:28:50;;;;;;;13.63;10.10;;;;;;;5.93;76.51;103015.56;5090959;28;20052;-53
2021/12/17 06:31:23;;;;;;;15.50;10.18;;;;;;;5.88;75.56;103016.22;5086505;28;20020;-53
2021/12/17 06:33:48;;;;;;;15.20;10.25;;;;;;;5.91;76.59;103018.97;5087310;28;20024;-53
2021/12/17 06:36:14;;;;;;;14.88;10.05;;;;;;;5.89;76.43;103015.41;5086569;28;20043;-53
2021/12/17 06:38:40;;;;;;;13.60;9.80;;;;;;;5.88;76.21;103012.69;5072206;28;20055;-53
2021/12/17 06:41:05;;;;;;;14.00;9.40;;;;;;;5.87;75.96;103010.91;5091463;28;20368;-53
2021/12/17 06:43:38;;;;;;;15.00;8.85;;;;;;;5.88;76.01;103007.47;5092288;28;20068;-53
2021/12/17 06:46:18;;;;;;;12.52;8.75;;;;;;;5.87;75.76;103000.44;5092733;28;20030;-53
2021/12/17 06:48:46;;;;;;;15.45;9.80;;;;;;;5.86;76.22;103004.75;5091565;28;20120;-53
2021/12/17 06:57:39;;;;;;;15.88;9.95;;;;;;;5.87;75.76;103021.38;5093702;28;20172;-53
2021/12/17 07:08:25;;;;;;;12.95;9.55;;;;;;;5.80;75.59;103008.81;5093022;28;20581;-53
2021/12/17 07:10:16;;;;;;;15.07;9.25;;;;;;;5.81;75.55;103002.75;5090528;28;20028;-53
2021/12/17 07:18:50;;;;;;;13.23;9.82;;;;;;;5.78;76.02;103011.34;5090353;28;20442;-53
2021/12/17 07:32:15;;;;;;;15.00;9.38;;;;;;;5.75;76.24;103017.34;5090471;28;20028;-53
2021/12/17 07:34:11;;;;;;;13.15;9.35;;;;;;;5.74;75.65;103020.78;5092928;28;20118;-53
2021/12/17 07:36:41;;;;;;;15.20;8.75;;;;;;;5.75;75.68;103019.06;5091354;28;20020;-53
2021/12/17 07:39:06;;;;;;;14.18;9.13;;;;;;;5.75;75.74;103014.72;5089956;28;20119;-52
2021/12/17 07:41:33;;;;;;;13.93;8.75;;;;;;;5.72;76.25;103014.56;5073705;28;20099;-53
2021/12/17 07:44:00;;;;;;;14.40;9.70;;;;;;;5.73;76.07;103008.50;5092053;28;20043;-54
2021/12/17 07:46:26;;;;;;;12.85;8.98;;;;;;;5.73;75.53;103008.50;5089031;28;20027;-53
2021/12/17 07:48:55;;;;;;;11.57;8.85;;;;;;;5.72;75.36;103014.56;5088176;28;20399;-53
2021/12/17 07:51:23;;;;;;;13.93;9.40;;;;;;;5.73;76.08;103016.38;5091511;28;20024;-53
2021/12/17 07:53:49;;;;;;;12.18;8.35;;;;;;;5.72;75.66;103011.03;5091908;28;20544;-53
2021/12/17 07:56:17;;;;;;;13.82;8.95;;;;;;;5.72;75.86;103011.97;5090555;28;20661;-53
2021/12/17 07:58:43;;;;;;;13.60;9.27;;;;;;;5.71;75.84;103010.16;5091585;28;20397;-53
2021/12/17 08:01:18;;;;;;;14.27;9.02;;;;;;;5.70;75.90;102997.88;5091518;28;20020;-53
2021/12/17 08:03:43;;;;;;;13.00;9.27;;;;;;;5.69;75.21;102997.78;5093447;28;20028;-53
2021/12/17 08:06:09;;;;;;;13.32;9.13;;;;;;;5.68;75.76;103004.78;5090825;28;20084;-53
2021/12/17 08:08:34;;;;;;;16.58;9.45;;;;;;;5.69;75.55;103005.66;5090714;28;20036;-53
2021/12/17 08:11:00;;;;;;;14.23;9.25;;;;;;;5.68;75.61;103022.19;5072605;28;20043;-54
2021/12/17 08:14:21;;;;;;;14.70;9.95;;;;;;;5.68;76.15;103032.66;5090225;28;20032;-53
2021/12/17 08:16:58;;;;;;;12.75;9.27;;;;;;;5.66;75.46;103035.22;5071197;28;20028;-53
2021/12/17 08:24:59;;;;;;;14.23;8.98;;;;;;;5.63;75.78;103021.97;5085772;28;20165;-53
2021/12/17 08:28:03;;;;;;;15.00;9.88;;;;;;;5.62;75.58;103014.94;5087112;28;20022;-54
2021/12/17 08:30:23;;;;;;;12.35;8.70;;;;;;;5.61;75.16;103021.88;5084634;28;20040;-53
2021/12/17 08:32:49;;;;;;;12.73;8.60;;;;;;;5.61;75.95;103019.25;5090204;28;20028;-53
2021/12/17 08:35:15;;;;;;;14.98;8.85;;;;;;;5.62;75.86;103022.78;5091819;28;20028;-53
2021/12/17 08:37:42;;;;;;;14.85;9.05;;;;;;;5.61;75.36;103026.25;5089488;28;20032;-53
2021/12/17 08:40:19;;;;;;;13.82;8.95;;;;;;;5.61;75.71;103015.78;5089126;28;20027;-53
2021/12/17 08:42:44;;;;;;;13.48;9.45;;;;;;;5.60;75.85;103027.94;5090341;28;20495;-52
2021/12/17 08:45:10;;;;;;;13.38;8.75;;;;;;;5.59;75.24;103006.94;5091130;28;20062;-53
2021/12/17 08:47:36;;;;;;;13.98;9.32;;;;;;;5.59;75.62;103007.84;5089164;28;20545;-54
2021/12/17 08:53:23;;;;;;;13.30;9.05;;;;;;;5.56;75.90;103030.31;5089424;28;20088;-53
2021/12/17 08:55:49;;;;;;;13.48;9.18;;;;;;;5.55;75.83;103025.94;5090556;28;20031;-52
2021/12/17 08:58:14;;;;;;;11.75;8.52;;;;;;;5.56;75.50;103027.72;5089295;28;20107;-52
2021/12/17 09:00:41;;;;;;;11.80;8.45;;;;;;;5.55;75.51;103023.31;5091544;28;20028;-53
2021/12/17 09:03:09;;;;;;;12.60;8.52;;;;;;;5.55;75.43;103024.22;5070962;28;20156;-53
2021/12/17 09:05:37;;;;;;;13.05;8.65;;;;;;;5.54;75.65;103037.22;5094235;28;20114;-53
2021/12/17 09:08:06;;;;;;;14.27;9.15;;;;;;;5.55;75.99;103036.41;5069684;28;20031;-53
2021/12/17 09:10:35;;;;;;;12.95;8.52;;;;;;;5.54;75.56;103038.13;5087589;28;20388;-53
2021/12/17 09:13:01;;;;;;;14.85;9.07;;;;;;;5.54;75.30;103035.53;5068878;28;20028;-53
2021/12/17 09:15:27;;;;;;;11.20;8.23;;;;;;;5.51;75.40;103028.38;5088502;28;20042;-53
2021/12/17 09:17:52;;;;;;;14.35;8.85;;;;;;;5.52;75.84;103038.06;5089547;28;20065;-53
2021/12/17 09:20:24;;;;;;;15.77;9.50;;;;;;;5.51;75.50;103031.00;5087857;28;20023;-53
2021/12/17 09:22:51;;;;;;;15.27;9.15;;;;;;;5.51;75.39;103036.25;5088801;28;20032;-53
2021/12/17 09:25:16;;;;;;;11.98;7.93;;;;;;;5.50;75.55;103044.91;5090835;28;20484;-53
2021/12/17 09:27:42;;;;;;;16.75;9.95;;;;;;;5.51;75.95;103053.69;5088910;28;20039;-52
2021/12/17 09:30:10;;;;;;;13.43;8.68;;;;;;;5.49;75.43;103050.97;5071969;28;20028;-52
2021/12/17 09:32:39;;;;;;;12.35;8.75;;;;;;;5.49;75.89;103044.84;5086444;28;20031;-53
2021/12/17 09:35:06;;;;;;;15.60;9.77;;;;;;;5.49;75.96;103050.97;5088166;28;20161;-53
2021/12/17 09:37:31;;;;;;;13.30;9.35;;;;;;;5.48;75.86;103051.81;5085209;28;20016;-53
2021/12/17 09:39:56;;;;;;;13.70;9.80;;;;;;;5.48;75.46;103054.44;5089255;28;20058;-53
2021/12/17 09:42:22;;;;;;;13.82;9.98;;;;;;;5.49;75.43;103037.00;5089600;28;20055;-53
2021/12/17 09:44:47;;;;;;;15.60;10.02;;;;;;;5.49;75.77;103024.81;5068551;28;20040;-53
2021/12/17 09:47:16;;;;;;;13.82;10.07;;;;;;;5.49;75.68;103026.53;5070147;28;20036;-53
2021/12/17 09:49:42;;;;;;;13.38;9.63;;;;;;;5.47;75.37;103025.56;5087843;28;20035;-53
2021/12/17 09:52:07;;;;;;;12.35;8.98;;;;;;;5.50;75.84;103041.41;5087522;28;20023;-54
2021/12/17 09:54:33;;;;;;;13.43;8.93;;;;;;;5.49;75.65;103040.50;5088403;28;20024;-53
2021/12/17 09:56:58;;;;;;;13.48;9.75;;;;;;;5.49;75.07;103030.03;5087939;28;20028;-53
2021/12/17 09:59:23;;;;;;;12.88;8.93;;;;;;;5.50;75.86;103020.44;5086528;28;20035;-53
2021/12/17 10:01:58;;;;;;;12.63;8.50;;;;;;;5.49;75.18;103022.19;5088326;28;20035;-53
2021/12/17 10:04:28;;;;;;;12.85;9.32;;;;;;;5.50;75.45;103015.22;5086140;28;20054;-53
2021/12/17 10:07:26;;;;;;;11.97;9.93;;;;;;;5.48;75.46;103012.56;5086604;28;20015;-53
2021/12/17 10:13:21;;;;;;;13.43;9.40;;;;;;;5.46;75.66;103014.19;5087099;28;20058;-53
2021/12/17 10:15:49;;;;;;;12.70;8.80;;;;;;;5.46;76.05;103002.81;5087018;28;20035;-53
2021/12/17 10:18:18;;;;;;;12.88;9.55;;;;;;;5.44;75.81;103010.56;5086335;28;20035;-53
2021/12/17 10:20:55;;;;;;;11.50;8.73;;;;;;;5.47;75.74;103010.72;5069222;28;20039;-53
2021/12/17 10:23:22;;;;;;;10.77;8.63;;;;;;;5.46;75.05;103006.31;5087284;28;20656;-53
2021/12/17 10:25:48;;;;;;;14.52;9.10;;;;;;;5.44;75.47;103005.34;5071200;28;20040;-53
2021/12/17 10:28:14;;;;;;;14.40;9.38;;;;;;;5.46;75.72;102998.47;5087801;28;20479;-53
2021/12/17 10:30:41;;;;;;;13.07;8.43;;;;;;;5.46;75.81;103003.72;5088759;28;20040;-53
2021/12/17 10:33:14;;;;;;;14.30;8.52;;;;;;;5.46;75.35;102998.47;5086271;28;20098;-53
2021/12/17 10:35:43;;;;;;;13.23;9.57;;;;;;;5.47;75.78;103002.00;5087024;28;20575;-54
2021/12/17 10:38:15;;;;;;;12.18;8.55;;;;;;;5.47;75.76;102999.38;5085095;28;20455;-53
2021/12/17 10:41:00;;;;;;;11.63;8.85;;;;;;;5.47;75.60;102997.66;5085412;28;20479;-52
2021/12/17 10:43:32;;;;;;;13.82;9.02;;;;;;;5.47;75.63;103005.50;5083762;28;20077;-53
2021/12/17 10:46:03;;;;;;;12.73;8.50;;;;;;;5.48;75.83;103004.69;5087402;28;20024;-53
2021/12/17 10:48:33;;;;;;;12.90;8.77;;;;;;;5.42;75.47;103006.09;5087086;28;20088;-53
2021/12/17 10:51:03;;;;;;;13.38;8.07;;;;;;;5.46;75.46;103014.19;5088130;28;20036;-54
2021/12/17 10:53:28;;;;;;;12.15;8.38;;;;;;;5.44;75.77;103017.53;5089007;28;20020;-53
2021/12/17 10:55:57;;;;;;;12.90;9.00;;;;;;;5.45;75.98;103030.72;5086190;28;20086;-53
2021/12/17 10:58:22;;;;;;;11.32;8.80;;;;;;;5.45;75.59;103033.34;5086563;28;20495;-53
2021/12/17 11:00:58;;;;;;;11.85;8.05;;;;;;;5.43;76.15;103040.19;5070987;28;20032;-53
2021/12/17 11:03:24;;;;;;;11.40;8.13;;;;;;;5.43;75.96;103040.19;5087856;28;20031;-53
2021/12/17 11:05:49;;;;;;;11.35;8.05;;;;;;;5.43;75.75;103031.47;5086632;28;20382;-54
2021/12/17 11:08:37;;;;;;;12.55;8.48;;;;;;;5.43;75.32;103034.09;5088585;28;20063;-53
2021/12/17 11:11:12;;;;;;;13.63;7.55;;;;;;;5.42;75.76;103025.31;5087094;28;20031;-53
2021/12/17 11:13:55;;;;;;;12.43;8.85;;;;;;;5.41;75.56;103020.00;5086249;28;20071;-53
2021/12/17 11:16:21;;;;;;;13.75;8.80;;;;;;;5.39;75.46;103018.22;5067647;28;20020;-53
2021/12/17 11:18:50;;;;;;;11.50;7.35;;;;;;;5.42;76.14;103011.31;5069824;28;20074;-53
2021/12/17 11:21:15;;;;;;;13.45;8.65;;;;;;;5.40;75.56;103016.47;5069461;28;20028;-53
2021/12/17 11:23:41;;;;;;;13.10;7.75;;;;;;;5.39;75.42;103017.31;5089332;28;20035;-53
2021/12/17 11:26:06;;;;;;;11.27;7.65;;;;;;;5.40;75.32;103003.38;5092252;28;20106;-53
2021/12/17 11:28:32;;;;;;;10.85;7.65;;;;;;;5.39;75.55;103014.69;5091986;28;20032;-52
2021/12/17 11:30:58;;;;;;;10.63;8.15;;;;;;;5.36;75.51;102997.13;5073386;28;20020;-52
2021/12/17 11:33:27;;;;;;;11.25;7.85;;;;;;;5.40;75.74;103008.63;5091612;28;20487;-53
2021/12/17 11:35:52;;;;;;;11.55;8.00;;;;;;;5.37;75.48;103008.50;5092255;28;20066;-53
2021/12/17 11:38:54;;;;;;;10.45;7.53;;;;;;;5.37;76.02;103008.50;5091510;28;20051;-52
2021/12/17 11:41:26;;;;;;;10.65;7.47;;;;;;;5.36;75.55;103004.06;5090750;28;20428;-53
2021/12/17 11:44:00;;;;;;;12.50;8.05;;;;;;;5.35;76.05;103012.75;5072091;28;20299;-54
2021/12/17 11:46:32;;;;;;;9.32;6.72;;;;;;;5.36;75.72;102998.81;5068645;28;20016;-53
2021/12/17 11:49:09;;;;;;;11.23;7.80;;;;;;;5.37;75.89;103008.50;5071194;28;20032;-53
2021/12/17 11:51:35;;;;;;;9.73;7.05;;;;;;;5.35;76.14;103004.91;5073111;28;20024;-53
2021/12/17 11:54:03;;;;;;;11.63;8.13;;;;;;;5.35;75.44;103012.75;5090920;28;20024;-52
2021/12/17 11:56:40;;;;;;;14.02;8.73;;;;;;;5.35;75.86;103004.91;5091797;28;20056;-53
2021/12/17 11:59:31;;;;;;;12.63;8.25;;;;;;;5.35;75.88;102999.66;5087121;28;20065;-52
2021/12/17 12:02:16;;;;;;;10.93;7.15;;;;;;;5.34;75.77;102997.88;5087737;28;20043;-52
2021/12/17 12:04:45;;;;;;;12.13;7.88;;;;;;;5.32;75.81;102996.88;5089899;28;20020;-53
2021/12/17 12:07:33;;;;;;;11.95;7.70;;;;;;;5.34;75.73;103003.97;5069948;28;20564;-52
2021/12/17 12:10:08;;;;;;;10.43;7.50;;;;;;;5.34;76.17;103000.50;5071117;28;20020;-53
2021/12/17 12:12:33;;;;;;;10.05;7.05;;;;;;;5.35;76.09;102991.81;5091039;28;20048;-53
2021/12/17 12:15:16;;;;;;;12.57;7.70;;;;;;;5.34;75.99;103008.34;5090447;28;20052;-52
2021/12/17 12:18:02;;;;;;;9.93;7.30;;;;;;;5.32;76.03;102999.50;5088802;28;20298;-53
2021/12/17 12:20:55;;;;;;;10.82;7.43;;;;;;;5.34;75.91;103003.09;5086834;28;20035;-52
2021/12/17 12:23:44;;;;;;;9.43;7.25;;;;;;;5.32;76.12;103002.13;5084613;28;20048;-54
2021/12/17 12:26:12;;;;;;;13.00;7.85;;;;;;;5.33;76.32;103009.16;5090001;28;20028;-53
2021/12/17 12:28:50;;;;;;;12.43;7.47;;;;;;;5.33;76.10;103002.19;5085251;28;20032;-52
2021/12/17 12:31:31;;;;;;;11.98;7.85;;;;;;;5.33;76.02;103007.44;5088306;28;20028;-53
2021/12/17 12:36:46;;;;;;;;;;;;;;;5.34;76.34;103003.09;5086416;28;20032;-53
2021/12/17 12:39:30;;;;;;;18.48;10.02;;;;;;;5.33;76.55;102985.63;5086186;28;19915;-53
2021/12/17 12:42:00;;;;;;;15.80;10.07;;;;;;;5.26;76.49;102974.84;5086707;28;20035;-53
2021/12/17 12:44:49;;;;;;;14.73;9.23;;;;;;;5.32;76.54;102983.78;5084747;28;20036;-53
2021/12/17 12:47:20;;;;;;;16.00;8.63;;;;;;;5.32;76.41;102975.94;5090185;28;20063;-56
2021/12/17 12:50:06;;;;;;;;;;;;;;;5.34;76.59;102984.78;5090801;28;20556;-52
2021/12/17 12:52:45;;;;;;;14.50;9.52;;;;;;;5.30;76.15;102986.34;5089957;28;19912;-52
2021/12/17 12:55:18;;;;;;;15.30;8.73;;;;;;;5.31;75.92;102979.41;5088986;28;20058;-53
2021/12/17 12:57:48;;;;;;;14.02;8.00;;;;;;;5.33;76.54;102975.16;5087919;28;20063;-53
2021/12/17 13:00:21;;;;;;;11.35;7.38;;;;;;;5.35;77.10;102973.50;5089819;28;20108;-52
2021/12/17 13:02:50;;;;;;;10.23;6.68;;;;;;;5.35;77.96;102978.72;5088058;28;20024;-53
2021/12/17 13:05:15;;;;;;;10.35;6.68;;;;;;;5.34;78.28;102976.94;5086926;28;20097;-52
2021/12/17 13:07:43;;;;;;;12.95;8.07;;;;;;;5.36;78.32;102970.03;5089364;28;20476;-53
2021/12/17 13:10:38;;;;;;;10.75;7.70;;;;;;;5.38;78.39;102976.25;5088584;28;20020;-53
2021/12/17 13:13:04;;;;;;;11.25;6.93;;;;;;;5.37;77.72;102982.31;5088461;28;20027;-53
2021/12/17 13:15:42;;;;;;;10.02;5.78;;;;;;;5.34;77.83;102966.47;5092600;28;20023;-53
2021/12/17 13:21:17;;;;;;;10.43;6.78;;;;;;;5.38;77.67;102974.53;5087911;28;20042;-50
2021/12/17 13:23:49;;;;;;;12.50;6.55;;;;;;;5.37;77.70;102977.09;5089807;28;20036;-53
2021/12/17 13:26:14;;;;;;;9.77;6.10;;;;;;;5.36;77.79;102970.03;5089751;28;20099;-51
2021/12/17 13:29:00;;;;;;;10.93;6.72;;;;;;;5.37;77.29;102977.09;5087660;28;20114;-55
2021/12/17 13:31:34;;;;;;;8.60;5.65;;;;;;;5.34;77.85;102976.94;5082436;28;20476;-54
2021/12/17 13:34:00;;;;;;;11.43;6.97;;;;;;;5.38;77.86;102971.03;5086024;28;20111;-52
2021/12/17 13:36:26;;;;;;;10.20;6.63;;;;;;;5.38;76.97;102968.41;5051994;28;20514;-52
2021/12/17 13:38:57;;;;;;;9.77;6.20;;;;;;;5.35;76.97;102965.63;5086627;28;20035;-53
2021/12/17 13:41:34;;;;;;;9.02;6.20;;;;;;;5.33;77.99;102970.78;5085813;28;20084;-53
2021/12/17 13:43:59;;;;;;;9.80;6.55;;;;;;;5.34;78.00;102974.31;5085682;28;20035;-53
2021/12/17 13:46:27;;;;;;;7.75;5.63;;;;;;;5.33;77.91;102964.69;5085308;28;20027;-52
2021/12/17 13:48:52;;;;;;;8.88;6.05;;;;;;;5.34;77.99;102975.19;5085070;28;20028;-53
2021/12/17 13:51:18;;;;;;;8.05;5.63;;;;;;;5.32;77.66;102968.09;5088343;28;20027;-53
2021/12/17 13:53:43;;;;;;;8.55;5.95;;;;;;;5.34;77.66;102979.56;5085606;28;20038;-52
2021/12/17 13:56:15;;;;;;;7.00;5.47;;;;;;;5.36;77.24;102983.13;5069549;28;20063;-53
2021/12/17 13:58:40;;;;;;;8.07;5.93;;;;;;;5.34;77.19;102976.94;5053088;28;20078;-52
2021/12/17 14:01:06;;;;;;;8.15;5.68;;;;;;;5.35;77.33;102970.88;5086439;28;20736;-52
2021/12/17 14:03:33;;;;;;;7.25;5.65;;;;;;;5.36;76.88;102972.66;5087483;28;20081;-52
2021/12/17 14:06:16;;;;;;;9.95;6.55;;;;;;;5.36;77.02;102973.56;5070197;28;20030;-53
2021/12/17 14:08:42;;;;;;;7.50;5.82;;;;;;;5.31;77.69;102975.06;5088137;28;20028;-53
2021/12/17 14:11:25;;;;;;;10.48;6.75;;;;;;;5.31;77.95;102980.31;5086899;28;20395;-52